createdAt,value
2023-04-21T00:02:54.041Z,12.04
2023-04-21T00:10:29.490Z,11.98
2023-04-21T00:18:04.146Z,12.12
2023-04-21T00:25:39.586Z,12.01
2023-04-21T00:33:13.769Z,11.98
2023-04-21T00:40:49.167Z,11.98
2023-04-21T00:48:24.110Z,12.00
2023-04-21T00:55:59.263Z,11.90
2023-04-21T01:03:34.049Z,11.82
2023-04-21T01:11:13.947Z,11.73
2023-04-21T01:18:49.410Z,11.64
2023-04-21T01:26:24.796Z,11.52
2023-04-21T01:33:58.961Z,11.42
2023-04-21T01:41:34.360Z,11.31
2023-04-21T01:49:09.190Z,11.18
2023-04-21T01:56:44.659Z,11.09
2023-04-21T02:04:18.644Z,10.98
2023-04-21T02:11:54.030Z,10.92
2023-04-21T02:19:28.132Z,10.82
2023-04-21T02:27:04.155Z,10.79
2023-04-21T02:34:38.200Z,10.69
2023-04-21T02:42:13.654Z,10.61
2023-04-21T02:49:47.823Z,10.55
2023-04-21T02:57:23.356Z,10.44
2023-04-21T03:04:57.281Z,10.35
2023-04-21T03:12:32.726Z,10.32
2023-04-21T03:20:08.562Z,10.26
2023-04-21T03:27:44.173Z,10.17
2023-04-21T03:35:18.949Z,10.12
2023-04-21T03:42:54.610Z,10.00
2023-04-21T03:50:29.480Z,9.95
2023-04-21T03:58:04.745Z,9.95
2023-04-21T04:05:38.708Z,9.84
2023-04-21T04:13:14.643Z,9.81
2023-04-21T04:20:48.704Z,9.80
2023-04-21T04:36:15.338Z,9.68
2023-04-21T04:43:51.170Z,9.68
2023-04-21T04:51:25.709Z,9.74
2023-04-21T04:59:01.534Z,9.80
2023-04-21T05:06:35.478Z,9.92
2023-04-21T05:14:10.875Z,10.07
2023-04-21T05:21:44.851Z,10.18
2023-04-21T05:29:20.288Z,10.35
2023-04-21T05:36:54.322Z,10.55
2023-04-21T05:44:29.807Z,10.63
2023-04-21T05:59:56.513Z,11.13
2023-04-21T06:07:30.483Z,11.32
2023-04-21T06:15:06.754Z,11.43
2023-04-21T06:30:33.259Z,11.78
2023-04-21T06:38:09.462Z,11.98
2023-04-21T06:45:44.895Z,11.94
2023-04-21T07:01:12.300Z,12.85
2023-04-21T07:08:46.514Z,13.01
2023-04-21T07:16:21.902Z,13.30
2023-04-21T07:23:56.232Z,13.59
2023-04-21T07:31:31.737Z,13.85
2023-04-21T07:39:06.785Z,13.90
2023-04-21T07:46:42.174Z,14.31
2023-04-21T07:54:16.270Z,14.56
2023-04-21T08:01:52.016Z,14.96
2023-04-21T08:09:26.248Z,15.40
2023-04-21T08:17:02.167Z,15.44
2023-04-21T08:24:36.122Z,16.59
2023-04-21T08:32:11.422Z,17.12
2023-04-21T08:39:45.563Z,16.57
2023-04-21T08:47:23.378Z,17.41
2023-04-21T10:14:59.413Z,19.56
2023-04-21T10:22:34.880Z,19.26
2023-04-21T10:30:26.214Z,19.32
2023-04-21T10:38:00.863Z,19.34
2023-04-21T10:45:39.716Z,19.28
2023-04-21T10:53:14.328Z,19.18
2023-04-21T11:00:55.286Z,19.22
2023-04-21T11:08:30.435Z,19.32
2023-04-21T11:16:08.199Z,19.39
2023-04-21T11:23:43.108Z,19.62
2023-04-21T11:31:18.562Z,19.77
2023-04-21T11:38:52.405Z,19.59
2023-04-21T11:46:29.163Z,19.86
2023-04-21T11:54:03.470Z,19.99
2023-04-21T12:01:44.006Z,20.00
2023-04-21T12:09:20.241Z,20.05
2023-04-21T12:16:57.539Z,20.25
2023-04-21T12:24:35.506Z,20.38
2023-04-21T12:32:12.210Z,20.09
2023-04-21T12:39:46.157Z,20.28
2023-04-21T12:47:21.535Z,20.44
2023-04-21T12:54:55.356Z,20.11
2023-04-21T13:02:31.319Z,20.00
2023-04-21T13:10:08.560Z,20.34
2023-04-21T13:17:43.876Z,20.35
2023-04-21T13:25:18.074Z,20.24
2023-04-21T13:32:53.726Z,20.36
2023-04-21T13:40:27.893Z,20.35
2023-04-21T13:48:03.280Z,20.27
2023-04-21T13:55:37.383Z,20.07
2023-04-21T14:03:14.137Z,20.11
2023-04-21T14:10:48.158Z,19.80
2023-04-21T14:18:23.637Z,19.93
2023-04-21T14:25:57.514Z,19.94
2023-04-21T14:33:33.262Z,19.93
2023-04-21T14:41:07.762Z,20.24
2023-04-21T14:48:44.678Z,20.15
2023-04-21T14:56:19.354Z,20.21
2023-04-21T15:03:57.573Z,19.97
2023-04-21T15:11:31.759Z,20.20
2023-04-21T15:19:07.017Z,20.07
2023-04-21T15:26:40.904Z,-142.05
2023-04-21T15:34:16.307Z,-142.05
2023-04-21T15:41:50.129Z,-142.05
2023-04-21T15:49:26.141Z,-142.05
2023-04-21T15:57:00.969Z,-142.05
2023-04-21T16:04:36.977Z,-142.05
2023-04-21T16:12:11.381Z,-142.05
2023-04-21T16:19:46.581Z,-142.05
2023-04-21T16:27:20.820Z,-142.05
2023-04-21T16:34:56.162Z,-142.05
2023-04-21T16:42:29.997Z,-142.05
2023-04-21T16:50:06.115Z,-142.05
2023-04-21T16:57:40.109Z,-142.05
2023-04-21T17:05:16.604Z,-142.05
2023-04-21T17:12:50.449Z,-142.05
2023-04-21T17:20:26.150Z,-142.05
2023-04-21T17:28:01.026Z,-142.05
2023-04-21T17:35:36.245Z,-142.05
2023-04-21T17:43:10.128Z,-142.05
2023-04-21T17:50:45.523Z,-142.05
2023-04-21T17:58:19.501Z,-142.05
2023-04-21T18:05:55.071Z,-142.05
2023-04-21T18:13:29.301Z,-142.05
2023-04-21T18:21:05.134Z,-142.05
2023-04-21T18:28:39.253Z,-142.05
2023-04-21T18:36:14.800Z,-142.05
2023-04-21T18:43:48.812Z,-142.05
2023-04-21T18:51:24.386Z,-142.05
2023-04-21T18:58:58.417Z,-142.05
2023-04-21T19:06:34.943Z,-142.05
2023-04-21T19:14:09.104Z,-142.05
2023-04-21T19:21:47.768Z,-142.05
2023-04-21T19:29:21.725Z,-142.05
2023-04-21T19:36:57.229Z,-142.05
2023-04-21T19:44:31.485Z,-142.05
2023-04-21T19:52:07.849Z,-142.05
2023-04-21T19:59:41.707Z,-142.05
2023-04-21T20:07:17.604Z,-142.05
2023-04-21T20:14:55.317Z,-142.05
2023-04-21T20:22:31.233Z,-142.05
2023-04-21T20:30:07.622Z,-142.05
2023-04-21T20:37:44.549Z,-142.05
2023-04-21T20:45:18.789Z,-142.05
2023-04-21T20:52:54.731Z,-142.05
2023-04-21T21:00:30.781Z,-142.05
2023-04-21T21:08:08.455Z,-142.05
2023-04-21T21:15:42.242Z,-142.05
2023-04-21T21:23:17.510Z,-142.05
2023-04-21T21:30:51.480Z,-142.05
2023-04-21T21:38:26.841Z,-142.05
2023-04-21T21:46:01.149Z,-142.05
2023-04-21T21:53:36.510Z,-142.05
2023-04-21T22:09:04.961Z,-142.05
2023-04-21T22:16:42.479Z,-142.05
2023-04-21T22:24:17.886Z,-142.05
2023-04-21T22:31:51.909Z,-142.05
2023-04-21T22:39:29.005Z,-142.05
2023-04-21T22:47:04.338Z,-142.05
2023-04-21T22:54:41.145Z,-142.05
2023-04-21T23:02:15.041Z,-142.05
2023-04-21T23:09:50.921Z,-142.05
2023-04-21T23:17:25.098Z,-142.05
2023-04-21T23:25:00.668Z,-142.05
2023-04-21T23:32:34.770Z,-142.05
2023-04-21T23:40:12.602Z,-142.05
2023-04-21T23:47:46.721Z,-142.05
2023-04-21T23:55:22.272Z,-142.05
